createdAt,value
2019-02-05T00:04:13.892Z,16.17
2019-02-05T00:10:10.163Z,14.90
2019-02-05T00:15:59.152Z,16.65
2019-02-05T00:21:55.429Z,15.20
2019-02-05T00:27:52.516Z,16.40
2019-02-05T00:33:50.506Z,17.80
2019-02-05T00:40:00.207Z,16.95
2019-02-05T00:45:43.784Z,16.35
2019-02-05T00:51:41.145Z,16.30
2019-02-05T00:57:37.603Z,16.25
2019-02-05T01:03:45.463Z,15.88
2019-02-05T01:09:40.991Z,15.70
2019-02-05T01:15:27.693Z,14.55
2019-02-05T01:21:25.895Z,15.20
2019-02-05T01:27:35.408Z,15.30
2019-02-05T01:33:31.598Z,16.30
2019-02-05T01:39:40.555Z,15.85
2019-02-05T01:45:38.949Z,16.40
2019-02-05T01:51:26.635Z,14.40
2019-02-05T01:57:23.335Z,15.05
2019-02-05T02:03:32.079Z,15.65
2019-02-05T02:09:30.101Z,14.80
2019-02-05T02:15:38.985Z,15.50
2019-02-05T02:21:35.909Z,16.00
2019-02-05T02:27:45.373Z,15.15
2019-02-05T02:33:41.677Z,16.73
2019-02-05T02:39:39.225Z,16.67
2019-02-05T02:45:40.157Z,16.62
2019-02-05T02:51:48.405Z,15.20
2019-02-05T02:57:44.230Z,13.90
2019-02-05T03:03:53.541Z,15.85
2019-02-05T03:09:52.167Z,15.83
2019-02-05T03:15:50.039Z,18.75
2019-02-05T03:21:47.243Z,16.73
2019-02-05T03:27:56.776Z,17.17
2019-02-05T03:33:54.714Z,17.32
2019-02-05T03:40:48.486Z,17.10
2019-02-05T03:46:45.110Z,18.45
2019-02-05T03:52:40.291Z,17.55
2019-02-05T03:59:13.226Z,17.15
2019-02-05T04:05:32.434Z,17.45
2019-02-05T04:12:24.317Z,18.25
2019-02-05T04:18:56.977Z,19.32
2019-02-05T04:25:37.476Z,19.15
2019-02-05T04:32:36.533Z,19.95
2019-02-05T04:38:57.518Z,19.95
2019-02-05T04:45:11.798Z,18.65
2019-02-05T04:51:49.737Z,17.27
2019-02-05T04:58:12.562Z,19.80
2019-02-05T05:05:03.631Z,19.73
2019-02-05T05:11:00.973Z,17.77
2019-02-05T05:16:58.945Z,17.60
2019-02-05T05:23:02.301Z,18.32
2019-02-05T05:29:04.921Z,19.23
2019-02-05T05:41:39.721Z,19.75
2019-02-05T05:47:37.228Z,20.72
2019-02-05T05:53:58.929Z,18.75
2019-02-05T05:59:56.250Z,18.42
2019-02-05T06:06:16.201Z,19.37
2019-02-05T06:12:12.281Z,19.20
2019-02-05T06:19:01.859Z,21.07
2019-02-05T06:25:08.067Z,21.33
2019-02-05T06:31:16.884Z,20.95
2019-02-05T06:37:13.411Z,19.32
2019-02-05T06:43:23.285Z,19.75
2019-02-05T06:49:25.427Z,20.95
2019-02-05T06:55:27.202Z,21.23
2019-02-05T07:01:24.746Z,20.88
2019-02-05T07:07:33.681Z,21.00
2019-02-05T07:13:29.957Z,23.70
2019-02-05T07:19:38.145Z,23.62
2019-02-05T07:25:34.681Z,21.93
2019-02-05T07:31:42.503Z,25.48
2019-02-05T07:41:01.509Z,26.10
2019-02-05T07:47:23.578Z,21.57
2019-02-05T07:53:19.676Z,30.20
2019-02-05T07:59:18.936Z,25.25
2019-02-05T08:05:04.229Z,26.25
2019-02-05T08:11:01.388Z,25.32
2019-02-05T08:16:47.957Z,27.30
2019-02-05T08:22:45.099Z,25.05
2019-02-05T08:28:56.609Z,24.63
2019-02-05T08:34:56.342Z,23.05
2019-02-05T08:40:54.143Z,24.63
2019-02-05T08:46:49.683Z,25.80
2019-02-05T08:52:50.181Z,27.58
2019-02-05T08:58:49.529Z,27.40
2019-02-05T09:04:47.338Z,27.73
2019-02-05T09:10:43.375Z,24.05
2019-02-05T09:16:19.047Z,26.23
2019-02-05T09:22:16.422Z,31.15
2019-02-05T09:28:25.072Z,29.82
2019-02-05T09:34:09.483Z,30.68
2019-02-05T09:40:08.311Z,30.37
2019-02-05T09:46:06.583Z,30.35
2019-02-05T09:52:15.233Z,31.07
2019-02-05T09:58:17.823Z,30.45
2019-02-05T10:04:43.653Z,30.48
2019-02-05T10:10:47.284Z,34.48
2019-02-05T10:16:45.848Z,42.60
2019-02-05T10:22:44.602Z,46.23
2019-02-05T10:28:42.893Z,38.40
2019-02-05T10:34:34.202Z,44.48
2019-02-05T10:40:29.188Z,41.02
2019-02-05T10:46:27.459Z,48.30
2019-02-05T10:52:26.017Z,47.70
2019-02-05T10:58:24.761Z,40.87
2019-02-05T11:04:26.146Z,41.00
2019-02-05T11:10:21.638Z,36.70
2019-02-05T11:16:23.397Z,36.00
2019-02-05T11:22:20.752Z,34.23
2019-02-05T11:28:17.627Z,32.80
2019-02-05T11:34:13.095Z,30.70
2019-02-05T11:40:12.366Z,31.97
2019-02-05T11:46:11.965Z,30.67
2019-02-05T11:52:09.985Z,28.60
2019-02-05T11:55:31.503Z,28.57
2019-02-05T12:01:38.959Z,27.67
2019-02-05T12:07:46.747Z,24.03
2019-02-05T12:13:43.519Z,24.13
2019-02-05T12:19:55.857Z,23.65
2019-02-05T12:25:52.537Z,24.23
2019-02-05T12:32:04.505Z,21.00
2019-02-05T12:38:00.074Z,22.65
2019-02-05T12:44:22.289Z,20.13
2019-02-05T12:50:23.085Z,18.87
2019-02-05T12:56:19.891Z,18.97
2019-02-05T13:02:20.180Z,17.67
2019-02-05T13:08:18.728Z,18.63
2019-02-05T13:14:30.268Z,17.70
2019-02-05T13:20:29.323Z,14.87
2019-02-05T13:26:40.470Z,16.33
2019-02-05T13:32:24.082Z,15.00
2019-02-05T13:38:33.846Z,15.10
2019-02-05T13:44:31.250Z,16.55
2019-02-05T13:50:42.800Z,15.90
2019-02-05T13:56:39.475Z,15.20
2019-02-05T14:02:35.996Z,14.80
2019-02-05T14:08:31.646Z,15.63
2019-02-05T14:14:31.901Z,14.10
2019-02-05T14:20:29.658Z,14.93
2019-02-05T14:26:40.304Z,13.45
2019-02-05T14:32:38.052Z,13.35
2019-02-05T14:38:37.605Z,13.40
2019-02-05T14:44:21.271Z,15.38
2019-02-05T14:50:22.196Z,15.78
2019-02-05T14:56:32.127Z,16.52
2019-02-05T15:02:28.809Z,17.48
2019-02-05T15:08:37.999Z,15.83
2019-02-05T15:14:33.749Z,17.17
2019-02-05T15:20:44.421Z,16.57
2019-02-05T15:26:42.965Z,19.20
2019-02-05T15:33:31.041Z,20.65
2019-02-05T15:39:29.681Z,19.80
2019-02-05T15:45:27.803Z,20.40
2019-02-05T15:51:26.659Z,18.80
2019-02-05T15:57:22.427Z,17.60
2019-02-05T16:03:17.139Z,16.60
2019-02-05T16:09:26.331Z,16.27
2019-02-05T16:15:22.177Z,20.55
2019-02-05T16:21:45.878Z,17.40
2019-02-05T16:27:40.731Z,17.48
2019-02-05T16:33:37.880Z,15.65
2019-02-05T16:39:48.420Z,16.77
2019-02-05T16:45:48.362Z,17.65
2019-02-05T16:51:44.506Z,16.42
2019-02-05T16:57:41.225Z,19.10
2019-02-05T17:03:41.575Z,17.75
2019-02-05T17:09:41.069Z,18.80
2019-02-05T17:16:01.910Z,18.23
2019-02-05T17:21:59.475Z,19.87
2019-02-05T17:27:58.699Z,15.85
2019-02-05T17:33:55.972Z,16.77
2019-02-05T17:39:54.104Z,15.72
2019-02-05T17:46:06.868Z,14.55
2019-02-05T17:52:05.108Z,15.35
2019-02-05T17:58:13.320Z,15.08
2019-02-05T18:04:08.725Z,15.10
2019-02-05T18:10:20.796Z,15.63
2019-02-05T18:16:20.426Z,17.00
2019-02-05T18:22:30.658Z,14.93
2019-02-05T18:28:30.951Z,13.55
2019-02-05T18:34:27.867Z,16.75
2019-02-05T18:40:25.045Z,15.93
2019-02-05T18:46:25.158Z,15.28
2019-02-05T18:52:22.179Z,15.80
2019-02-05T18:58:18.887Z,16.97
2019-02-05T19:04:19.108Z,13.25
2019-02-05T19:10:18.738Z,12.00
2019-02-05T19:16:14.389Z,11.50
2019-02-05T19:22:12.176Z,11.03
2019-02-05T19:28:32.730Z,12.47
2019-02-05T19:34:19.079Z,13.88
2019-02-05T19:40:22.339Z,11.28
2019-02-05T19:46:36.575Z,10.45
2019-02-05T19:52:53.420Z,11.15
2019-02-05T19:58:50.928Z,10.63
2019-02-05T20:04:48.197Z,12.45
2019-02-05T20:11:11.146Z,11.95
2019-02-05T20:17:09.522Z,10.20
2019-02-05T20:23:08.351Z,10.78
2019-02-05T20:28:57.534Z,10.58
2019-02-05T20:34:57.805Z,9.60
2019-02-05T20:41:08.043Z,10.90
2019-02-05T20:47:10.354Z,10.15
2019-02-05T20:53:17.541Z,11.68
2019-02-05T20:59:14.742Z,12.47
2019-02-05T21:05:02.043Z,11.25
2019-02-05T21:10:45.565Z,12.58
2019-02-05T21:16:54.298Z,12.05
2019-02-05T21:22:49.778Z,10.00
2019-02-05T21:28:59.196Z,9.05
2019-02-05T21:34:55.723Z,9.05
2019-02-05T21:40:54.497Z,8.48
2019-02-05T21:46:54.049Z,8.88
2019-02-05T21:52:53.402Z,8.78
2019-02-05T21:58:37.017Z,9.28
2019-02-05T22:04:34.346Z,9.35
2019-02-05T22:10:32.143Z,11.53
2019-02-05T22:16:29.423Z,9.48
2019-02-05T22:22:37.170Z,9.70
2019-02-05T22:28:34.611Z,6.80
2019-02-05T22:34:55.970Z,8.33
2019-02-05T22:40:51.689Z,7.65
2019-02-05T22:46:59.767Z,8.00
2019-02-05T22:52:55.867Z,8.30
2019-02-05T22:59:05.796Z,8.90
2019-02-05T23:05:30.579Z,8.90
2019-02-05T23:12:03.527Z,7.42
2019-02-05T23:18:15.343Z,7.22
2019-02-05T23:24:12.466Z,6.60
2019-02-05T23:29:58.779Z,7.20
2019-02-05T23:35:57.976Z,6.00
2019-02-05T23:41:43.063Z,6.42
2019-02-05T23:47:44.564Z,5.60
2019-02-05T23:53:55.595Z,5.92
2019-02-05T23:59:53.205Z,5.47
